Nortonville, Illinois
Current Conditions -  °F | °C
As of 11:15 PM on Tuesday 25 Nov 2014 (Local Time) from KIJX Reporting Station
Clear Clear  
Wind Chill: 23°   Ceiling: Unl
Heat Index: 28°   Visibility: 10mi
Dew Point: 24°   Wind: 5mph
Humidity: 83%   Direction: 140°SE
Pressure: 30.15"   Gusts: NA
Location:  39.5633°N, 90.2043°W
Report Text: KIJX 260515Z AUTO 14004KT 10SM CLR M02/M05 A3015 RMK AO2 T10221047
Loading
Personal Weather Stations






























Interactive Weather Map New forecast layout! Learn more

10-Day Weather Forecast

Advertisements
Track Severe Weather on mobile